Mobert — WDH5860 — position and weather

sailwx.info

Track history (hours):
 
Tides and Currents Weather Stations Pressure Air Temp Water Temp Dewpoint Dewpoint Depression Visibility Wind Speed Wind Dir Waves Ship Positions

Mobert

Owner: Anderson, Richard J, Kirkland, WA. More information available from US FCC via Universal Licensing System and Coast Guard Vessel Documentation Center.

Last reported at 2017-Dec-10 19:21 UTC. Time now 2017-Dec-18 05:19 UTC.
Position N 24°16' W 110°22'.

Length 15 m.

Type: Sailing vessel. MMSI: 367632210.

Date/timePositionNaut miles runAvg speedWind from/ knotsBaromVisibWave heightAir tempDewpointWater temp
2017-Dec-10 19:21N 24°16' W 110°22'2 5.9
2017-Dec-10 19:00N 24°15' W 110°20'3 5.7
2017-Dec-10 18:29N 24°13' W 110°18'3 5.5
2017-Dec-10 18:00N 24°10' W 110°19'1 1.4
2017-Dec-10 17:29N 24°09' W 110°20'0 0.0
2017-Dec-10 16:59N 24°09' W 110°20'0 0.0
2017-Dec-10 16:29N 24°09' W 110°20'0 0.0
2017-Dec-10 15:45N 24°09' W 110°20'0 0.0
2017-Dec-10 15:25N 24°09' W 110°20'0 0.0
2017-Dec-10 14:59N 24°09' W 110°20'0 0.0
2017-Dec-10 14:29N 24°09' W 110°20'0 0.0
2017-Dec-10 13:59N 24°09' W 110°20'0 0.0
2017-Dec-10 13:29N 24°09' W 110°20'0 0.0
2017-Dec-10 12:59N 24°09' W 110°20'0 0.0
2017-Dec-10 12:29N 24°09' W 110°20'0 0.0
2017-Dec-10 11:59N 24°09' W 110°20'0 0.0
2017-Dec-10 11:29N 24°09' W 110°20'0 0.0
2017-Dec-10 10:59N 24°09' W 110°20'0 0.0
2017-Dec-10 10:29N 24°09' W 110°20'0 0.0
2017-Dec-10 09:59N 24°09' W 110°20'0 0.0
2017-Dec-10 09:29N 24°09' W 110°20'0 0.0
2017-Dec-10 08:59N 24°09' W 110°20'0 0.0
2017-Dec-10 08:29N 24°09' W 110°20'0 0.0
2017-Dec-10 07:59N 24°09' W 110°20'0 0.0
2017-Dec-10 07:29N 24°09' W 110°20'0 0.0
2017-Dec-10 06:59N 24°09' W 110°20'0 0.0
2017-Dec-10 06:29N 24°09' W 110°20'0 0.0
2017-Dec-10 05:59N 24°09' W 110°20'0 0.0
2017-Dec-10 05:29N 24°09' W 110°20'0 0.0
2017-Dec-10 04:59N 24°09' W 110°20'0 0.0
2017-Dec-10 04:28N 24°09' W 110°20'0 0.0
2017-Dec-10 04:00N 24°09' W 110°20'0 0.0
2017-Dec-10 03:29N 24°09' W 110°20'0 0.0
2017-Dec-10 02:59N 24°09' W 110°20'0 0.0
2017-Dec-10 02:30N 24°09' W 110°20'0 0.0
2017-Dec-10 01:54N 24°09' W 110°20'0 0.0
2017-Dec-10 01:29N 24°09' W 110°20'0 0.0
2017-Dec-10 00:59N 24°09' W 110°20'0 0.0
2017-Dec-10 00:29N 24°09' W 110°20'0 0.0
2017-Dec-09 23:59N 24°09' W 110°20'0 0.0
2017-Dec-09 23:24N 24°09' W 110°20'0 0.0
2017-Dec-09 22:59N 24°09' W 110°20'0 0.0
2017-Dec-09 22:29N 24°09' W 110°20'2 4.7
2017-Dec-09 21:57N 24°12' W 110°18'3 5.6
2017-Dec-09 21:29N 24°14' W 110°20'  
2017-Dec-03 22:07N 24°15' W 110°22'1 7.6
2017-Dec-03 21:58N 24°15' W 110°21'3 5.5
2017-Dec-03 21:30N 24°13' W 110°19'0 0.8
2017-Dec-03 20:59N 24°13' W 110°18'1 2.0
2017-Dec-03 20:28N 24°12' W 110°18'3 5.9
2017-Dec-03 19:59N 24°09' W 110°19'0 0.0
2017-Dec-03 19:29N 24°09' W 110°19'0 0.0
2017-Dec-03 18:59N 24°09' W 110°19'0 0.0
2017-Dec-03 18:29N 24°09' W 110°19'0 0.0
2017-Dec-03 17:59N 24°09' W 110°19'0 0.0
2017-Dec-03 17:29N 24°09' W 110°19'0 0.0
2017-Dec-03 16:59N 24°09' W 110°19'0 0.0
2017-Dec-03 16:29N 24°09' W 110°19'0 0.0
2017-Dec-03 15:59N 24°09' W 110°19'0 0.0
2017-Dec-03 15:29N 24°09' W 110°19'0 0.0
2017-Dec-03 14:59N 24°09' W 110°19'0 0.0
2017-Dec-03 14:29N 24°09' W 110°19'0 0.0
2017-Dec-03 13:59N 24°09' W 110°19'0 0.0
2017-Dec-03 13:29N 24°09' W 110°19'0 0.0
2017-Dec-03 12:59N 24°09' W 110°19'0 0.0
2017-Dec-03 12:29N 24°09' W 110°19'0 0.0
2017-Dec-03 11:59N 24°09' W 110°19'0 0.0
2017-Dec-03 11:29N 24°09' W 110°19'0 0.0
2017-Dec-03 10:59N 24°09' W 110°19'0 0.0
2017-Dec-03 10:29N 24°09' W 110°19'0 0.0
2017-Dec-03 09:59N 24°09' W 110°19'0 0.0
2017-Dec-03 09:29N 24°09' W 110°19'0 0.0
2017-Dec-03 08:56N 24°09' W 110°19'0 0.0
2017-Dec-03 08:29N 24°09' W 110°19'0 0.0
2017-Dec-03 07:59N 24°09' W 110°19'0 0.0
2017-Dec-03 07:29N 24°09' W 110°19'0 0.0
2017-Dec-03 06:59N 24°09' W 110°19'0 0.0
2017-Dec-03 06:29N 24°09' W 110°19'0 0.0
2017-Dec-03 05:59N 24°09' W 110°19'0 0.0
2017-Dec-03 05:29N 24°09' W 110°19'0 0.0
2017-Dec-03 04:59N 24°09' W 110°19'0 0.0
2017-Dec-03 04:29N 24°09' W 110°19'0 0.0
2017-Dec-03 03:59N 24°09' W 110°19'0 0.0
2017-Dec-03 03:29N 24°09' W 110°19'0 0.0
2017-Dec-03 02:59N 24°09' W 110°19'0 0.0
2017-Dec-03 02:29N 24°09' W 110°19'0 0.0
2017-Dec-03 01:59N 24°09' W 110°19'0 0.0
2017-Dec-03 01:29N 24°09' W 110°19'0 0.0
2017-Dec-03 00:59N 24°09' W 110°19'0 0.0
2017-Dec-03 00:11N 24°09' W 110°19'0 0.0
2017-Dec-02 23:59N 24°09' W 110°19'0 0.0
2017-Dec-02 23:29N 24°09' W 110°19'0 0.0
2017-Dec-02 22:59N 24°09' W 110°19'0 0.0
2017-Dec-02 22:29N 24°09' W 110°19'0 0.0
2017-Dec-02 21:59N 24°09' W 110°19'0 0.0
2017-Dec-02 21:29N 24°09' W 110°19'0 0.0
2017-Dec-02 20:59N 24°09' W 110°19'0 0.0
2017-Dec-02 20:29N 24°09' W 110°19'0 0.0
2017-Dec-02 19:59N 24°09' W 110°19'0 0.0
2017-Dec-02 19:29N 24°09' W 110°19'0 0.0
2017-Dec-02 19:00N 24°09' W 110°19'0 0.0
2017-Dec-02 18:29N 24°09' W 110°19'0 0.0
2017-Dec-02 17:59N 24°09' W 110°19'0 0.0
2017-Dec-02 17:29N 24°09' W 110°19'0 0.0
2017-Dec-02 16:59N 24°09' W 110°19'0 0.0
2017-Dec-02 16:18N 24°09' W 110°19'0 0.0
2017-Dec-02 15:59N 24°09' W 110°19'0 0.0
2017-Dec-02 15:29N 24°09' W 110°19'0 0.0
2017-Dec-02 14:53N 24°09' W 110°19'0 0.0
2017-Dec-02 14:26N 24°09' W 110°19'0 0.0
2017-Dec-02 13:59N 24°09' W 110°19'0 0.0
2017-Dec-02 13:29N 24°09' W 110°19'0 0.0
2017-Dec-02 12:59N 24°09' W 110°19'0 0.0
2017-Dec-02 12:29N 24°09' W 110°19'0 0.0
2017-Dec-02 11:59N 24°09' W 110°19'0 0.0
2017-Dec-02 11:29N 24°09' W 110°19'0 0.0
2017-Dec-02 10:59N 24°09' W 110°19'0 0.0
2017-Dec-02 10:29N 24°09' W 110°19'0 0.0
2017-Dec-02 09:59N 24°09' W 110°19'0 0.0
2017-Dec-02 09:29N 24°09' W 110°19'0 0.0
2017-Dec-02 08:59N 24°09' W 110°19'0 0.0
2017-Dec-02 08:29N 24°09' W 110°19'0 0.0
2017-Dec-02 07:59N 24°09' W 110°19'0 0.0
2017-Dec-02 07:29N 24°09' W 110°19'0 0.0
2017-Dec-02 06:59N 24°09' W 110°19'0 0.0
2017-Dec-02 06:29N 24°09' W 110°19'0 0.0
2017-Dec-02 05:59N 24°09' W 110°19'0 0.0
2017-Dec-02 05:29N 24°09' W 110°19'0 0.0
2017-Dec-02 04:59N 24°09' W 110°19'0 0.0
2017-Dec-02 04:29N 24°09' W 110°19'0 0.0
2017-Dec-02 04:00N 24°09' W 110°19'0 0.0
2017-Dec-02 03:26N 24°09' W 110°19'0 0.0
2017-Dec-02 02:59N 24°09' W 110°19'0 0.0
2017-Dec-02 02:29N 24°09' W 110°19'0 0.0
2017-Dec-02 01:59N 24°09' W 110°19'0 0.0
2017-Dec-02 01:29N 24°09' W 110°19'0 0.0
2017-Dec-02 00:59N 24°09' W 110°19'0 0.0
2017-Dec-02 00:26N 24°09' W 110°19'0 0.0
2017-Dec-01 23:59N 24°09' W 110°19'0 0.0
2017-Dec-01 23:29N 24°09' W 110°19'0 0.0
2017-Dec-01 22:59N 24°09' W 110°19'0 0.0
2017-Dec-01 22:29N 24°09' W 110°19'0 0.0
2017-Dec-01 21:59N 24°09' W 110°19'0 0.0
2017-Dec-01 21:29N 24°09' W 110°19'0 0.0
2017-Dec-01 20:59N 24°09' W 110°19'0 0.0
2017-Dec-01 20:29N 24°09' W 110°19'0 0.0
2017-Dec-01 19:59N 24°09' W 110°19'0 0.0
2017-Dec-01 19:29N 24°09' W 110°19'0 0.0
2017-Dec-01 18:59N 24°09' W 110°19'0 0.0
2017-Dec-01 18:29N 24°09' W 110°19'0 0.0
2017-Dec-01 17:59N 24°09' W 110°19'0 0.0
2017-Dec-01 17:29N 24°09' W 110°19'0 0.0
2017-Dec-01 16:59N 24°09' W 110°19'0 0.0
2017-Dec-01 16:29N 24°09' W 110°19'0 0.0
2017-Dec-01 15:59N 24°09' W 110°19'0 0.0
2017-Dec-01 15:29N 24°09' W 110°19'0 0.0
2017-Dec-01 14:56N 24°09' W 110°19'0 0.0
2017-Dec-01 14:30N 24°09' W 110°19'0 0.0
2017-Dec-01 13:59N 24°09' W 110°19'0 0.0
2017-Dec-01 13:29N 24°09' W 110°19'0 0.0
2017-Dec-01 12:59N 24°09' W 110°19'0 0.0
2017-Dec-01 12:29N 24°09' W 110°19'0 0.0
2017-Dec-01 11:59N 24°09' W 110°19'0 0.0
2017-Dec-01 11:29N 24°09' W 110°19'0 0.0
2017-Dec-01 10:59N 24°09' W 110°19'0 0.0
2017-Dec-01 10:29N 24°09' W 110°19'0 0.0
2017-Dec-01 09:59N 24°09' W 110°19'0 0.0
2017-Dec-01 09:29N 24°09' W 110°19'0 0.0
2017-Dec-01 08:59N 24°09' W 110°19'0 0.0
2017-Dec-01 08:29N 24°09' W 110°19'0 0.0
2017-Dec-01 07:59N 24°09' W 110°19'0 0.0
2017-Dec-01 07:29N 24°09' W 110°19'0 0.0
2017-Dec-01 06:59N 24°09' W 110°19'0 0.0
2017-Dec-01 06:29N 24°09' W 110°19'0 0.0
2017-Dec-01 05:59N 24°09' W 110°19'0 0.0
2017-Dec-01 05:29N 24°09' W 110°19'0 0.0
2017-Dec-01 04:56N 24°09' W 110°19'0 0.0
2017-Dec-01 04:29N 24°09' W 110°19'0 0.0
2017-Dec-01 03:59N 24°09' W 110°19'0 0.0
2017-Dec-01 03:29N 24°09' W 110°19'0 0.0
2017-Dec-01 02:59N 24°09' W 110°19'0 0.0
2017-Dec-01 02:29N 24°09' W 110°19'0 0.0
2017-Dec-01 01:59N 24°09' W 110°19'0 0.0
2017-Dec-01 01:29N 24°09' W 110°19'0 0.0
2017-Dec-01 00:59N 24°09' W 110°19'0 0.0
2017-Dec-01 00:29N 24°09' W 110°19'0 0.0
2017-Dec-01 00:00N 24°09' W 110°19'0 0.0
2017-Nov-30 23:29N 24°09' W 110°19'0 0.0
2017-Nov-30 22:59N 24°09' W 110°19'0 0.0
2017-Nov-30 22:29N 24°09' W 110°19'0 0.0
2017-Nov-30 21:59N 24°09' W 110°19'0 0.0
2017-Nov-30 21:29N 24°09' W 110°19'0 0.0
2017-Nov-30 20:59N 24°09' W 110°19'0 0.0
2017-Nov-30 20:30N 24°09' W 110°19'0 0.0
2017-Nov-30 19:59N 24°09' W 110°19'0 0.0
2017-Nov-30 19:29N 24°09' W 110°19'  
Track history (hours):
 
Tides and Currents Weather Stations Pressure Air Temp Water Temp Dewpoint Dewpoint Depression Visibility Wind Speed Wind Dir Waves Ship Positions

Mobert

Owner: Anderson, Richard J, Kirkland, WA. More information available from US FCC via Universal Licensing System and Coast Guard Vessel Documentation Center.

Last reported at 2017-Dec-10 19:21 UTC. Time now 2017-Dec-18 05:19 UTC.
Position N 24°16' W 110°22'.

Length 15 m.

Type: Sailing vessel. MMSI: 367632210.

Date/timePositionNaut miles runAvg speedWind from/ knotsBaromVisibWave heightAir tempDewpointWater temp
2017-Dec-10 19:21N 24°16' W 110°22'2 5.9
2017-Dec-10 19:00N 24°15' W 110°20'3 5.7
2017-Dec-10 18:29N 24°13' W 110°18'3 5.5
2017-Dec-10 18:00N 24°10' W 110°19'1 1.4
2017-Dec-10 17:29N 24°09' W 110°20'0 0.0
2017-Dec-10 16:59N 24°09' W 110°20'0 0.0
2017-Dec-10 16:29N 24°09' W 110°20'0 0.0
2017-Dec-10 15:45N 24°09' W 110°20'0 0.0
2017-Dec-10 15:25N 24°09' W 110°20'0 0.0
2017-Dec-10 14:59N 24°09' W 110°20'0 0.0
2017-Dec-10 14:29N 24°09' W 110°20'0 0.0
2017-Dec-10 13:59N 24°09' W 110°20'0 0.0
2017-Dec-10 13:29N 24°09' W 110°20'0 0.0
2017-Dec-10 12:59N 24°09' W 110°20'0 0.0
2017-Dec-10 12:29N 24°09' W 110°20'0 0.0
2017-Dec-10 11:59N 24°09' W 110°20'0 0.0
2017-Dec-10 11:29N 24°09' W 110°20'0 0.0
2017-Dec-10 10:59N 24°09' W 110°20'0 0.0
2017-Dec-10 10:29N 24°09' W 110°20'0 0.0
2017-Dec-10 09:59N 24°09' W 110°20'0 0.0
2017-Dec-10 09:29N 24°09' W 110°20'0 0.0
2017-Dec-10 08:59N 24°09' W 110°20'0 0.0
2017-Dec-10 08:29N 24°09' W 110°20'0 0.0
2017-Dec-10 07:59N 24°09' W 110°20'0 0.0
2017-Dec-10 07:29N 24°09' W 110°20'0 0.0
2017-Dec-10 06:59N 24°09' W 110°20'0 0.0
2017-Dec-10 06:29N 24°09' W 110°20'0 0.0
2017-Dec-10 05:59N 24°09' W 110°20'0 0.0
2017-Dec-10 05:29N 24°09' W 110°20'0 0.0
2017-Dec-10 04:59N 24°09' W 110°20'0 0.0
2017-Dec-10 04:28N 24°09' W 110°20'0 0.0
2017-Dec-10 04:00N 24°09' W 110°20'0 0.0
2017-Dec-10 03:29N 24°09' W 110°20'0 0.0
2017-Dec-10 02:59N 24°09' W 110°20'0 0.0
2017-Dec-10 02:30N 24°09' W 110°20'0 0.0
2017-Dec-10 01:54N 24°09' W 110°20'0 0.0
2017-Dec-10 01:29N 24°09' W 110°20'0 0.0
2017-Dec-10 00:59N 24°09' W 110°20'0 0.0
2017-Dec-10 00:29N 24°09' W 110°20'0 0.0
2017-Dec-09 23:59N 24°09' W 110°20'0 0.0
2017-Dec-09 23:24N 24°09' W 110°20'0 0.0
2017-Dec-09 22:59N 24°09' W 110°20'0 0.0
2017-Dec-09 22:29N 24°09' W 110°20'2 4.7
2017-Dec-09 21:57N 24°12' W 110°18'3 5.6
2017-Dec-09 21:29N 24°14' W 110°20'  
2017-Dec-03 22:07N 24°15' W 110°22'1 7.6
2017-Dec-03 21:58N 24°15' W 110°21'3 5.5
2017-Dec-03 21:30N 24°13' W 110°19'0 0.8
2017-Dec-03 20:59N 24°13' W 110°18'1 2.0
2017-Dec-03 20:28N 24°12' W 110°18'3 5.9
2017-Dec-03 19:59N 24°09' W 110°19'0 0.0
2017-Dec-03 19:29N 24°09' W 110°19'0 0.0
2017-Dec-03 18:59N 24°09' W 110°19'0 0.0
2017-Dec-03 18:29N 24°09' W 110°19'0 0.0
2017-Dec-03 17:59N 24°09' W 110°19'0 0.0
2017-Dec-03 17:29N 24°09' W 110°19'0 0.0
2017-Dec-03 16:59N 24°09' W 110°19'0 0.0
2017-Dec-03 16:29N 24°09' W 110°19'0 0.0
2017-Dec-03 15:59N 24°09' W 110°19'0 0.0
2017-Dec-03 15:29N 24°09' W 110°19'0 0.0
2017-Dec-03 14:59N 24°09' W 110°19'0 0.0
2017-Dec-03 14:29N 24°09' W 110°19'0 0.0
2017-Dec-03 13:59N 24°09' W 110°19'0 0.0
2017-Dec-03 13:29N 24°09' W 110°19'0 0.0
2017-Dec-03 12:59N 24°09' W 110°19'0 0.0
2017-Dec-03 12:29N 24°09' W 110°19'0 0.0
2017-Dec-03 11:59N 24°09' W 110°19'0 0.0
2017-Dec-03 11:29N 24°09' W 110°19'0 0.0
2017-Dec-03 10:59N 24°09' W 110°19'0 0.0
2017-Dec-03 10:29N 24°09' W 110°19'0 0.0
2017-Dec-03 09:59N 24°09' W 110°19'0 0.0
2017-Dec-03 09:29N 24°09' W 110°19'0 0.0
2017-Dec-03 08:56N 24°09' W 110°19'0 0.0
2017-Dec-03 08:29N 24°09' W 110°19'0 0.0
2017-Dec-03 07:59N 24°09' W 110°19'0 0.0
2017-Dec-03 07:29N 24°09' W 110°19'0 0.0
2017-Dec-03 06:59N 24°09' W 110°19'0 0.0
2017-Dec-03 06:29N 24°09' W 110°19'0 0.0
2017-Dec-03 05:59N 24°09' W 110°19'0 0.0
2017-Dec-03 05:29N 24°09' W 110°19'0 0.0
2017-Dec-03 04:59N 24°09' W 110°19'0 0.0
2017-Dec-03 04:29N 24°09' W 110°19'0 0.0
2017-Dec-03 03:59N 24°09' W 110°19'0 0.0
2017-Dec-03 03:29N 24°09' W 110°19'0 0.0
2017-Dec-03 02:59N 24°09' W 110°19'0 0.0
2017-Dec-03 02:29N 24°09' W 110°19'0 0.0
2017-Dec-03 01:59N 24°09' W 110°19'0 0.0
2017-Dec-03 01:29N 24°09' W 110°19'0 0.0
2017-Dec-03 00:59N 24°09' W 110°19'0 0.0
2017-Dec-03 00:11N 24°09' W 110°19'0 0.0
2017-Dec-02 23:59N 24°09' W 110°19'0 0.0
2017-Dec-02 23:29N 24°09' W 110°19'0 0.0
2017-Dec-02 22:59N 24°09' W 110°19'0 0.0
2017-Dec-02 22:29N 24°09' W 110°19'0 0.0
2017-Dec-02 21:59N 24°09' W 110°19'0 0.0
2017-Dec-02 21:29N 24°09' W 110°19'0 0.0
2017-Dec-02 20:59N 24°09' W 110°19'0 0.0
2017-Dec-02 20:29N 24°09' W 110°19'0 0.0
2017-Dec-02 19:59N 24°09' W 110°19'0 0.0
2017-Dec-02 19:29N 24°09' W 110°19'0 0.0
2017-Dec-02 19:00N 24°09' W 110°19'0 0.0
2017-Dec-02 18:29N 24°09' W 110°19'0 0.0
2017-Dec-02 17:59N 24°09' W 110°19'0 0.0
2017-Dec-02 17:29N 24°09' W 110°19'0 0.0
2017-Dec-02 16:59N 24°09' W 110°19'0 0.0
2017-Dec-02 16:18N 24°09' W 110°19'0 0.0
2017-Dec-02 15:59N 24°09' W 110°19'0 0.0
2017-Dec-02 15:29N 24°09' W 110°19'0 0.0
2017-Dec-02 14:53N 24°09' W 110°19'0 0.0
2017-Dec-02 14:26N 24°09' W 110°19'0 0.0
2017-Dec-02 13:59N 24°09' W 110°19'0 0.0
2017-Dec-02 13:29N 24°09' W 110°19'0 0.0
2017-Dec-02 12:59N 24°09' W 110°19'0 0.0
2017-Dec-02 12:29N 24°09' W 110°19'0 0.0
2017-Dec-02 11:59N 24°09' W 110°19'0 0.0
2017-Dec-02 11:29N 24°09' W 110°19'0 0.0
2017-Dec-02 10:59N 24°09' W 110°19'0 0.0
2017-Dec-02 10:29N 24°09' W 110°19'0 0.0
2017-Dec-02 09:59N 24°09' W 110°19'0 0.0
2017-Dec-02 09:29N 24°09' W 110°19'0 0.0
2017-Dec-02 08:59N 24°09' W 110°19'0 0.0
2017-Dec-02 08:29N 24°09' W 110°19'0 0.0
2017-Dec-02 07:59N 24°09' W 110°19'0 0.0
2017-Dec-02 07:29N 24°09' W 110°19'0 0.0
2017-Dec-02 06:59N 24°09' W 110°19'0 0.0
2017-Dec-02 06:29N 24°09' W 110°19'0 0.0
2017-Dec-02 05:59N 24°09' W 110°19'0 0.0
2017-Dec-02 05:29N 24°09' W 110°19'0 0.0
2017-Dec-02 04:59N 24°09' W 110°19'0 0.0
2017-Dec-02 04:29N 24°09' W 110°19'0 0.0
2017-Dec-02 04:00N 24°09' W 110°19'0 0.0
2017-Dec-02 03:26N 24°09' W 110°19'0 0.0
2017-Dec-02 02:59N 24°09' W 110°19'0 0.0
2017-Dec-02 02:29N 24°09' W 110°19'0 0.0
2017-Dec-02 01:59N 24°09' W 110°19'0 0.0
2017-Dec-02 01:29N 24°09' W 110°19'0 0.0
2017-Dec-02 00:59N 24°09' W 110°19'0 0.0
2017-Dec-02 00:26N 24°09' W 110°19'0 0.0
2017-Dec-01 23:59N 24°09' W 110°19'0 0.0
2017-Dec-01 23:29N 24°09' W 110°19'0 0.0
2017-Dec-01 22:59N 24°09' W 110°19'0 0.0
2017-Dec-01 22:29N 24°09' W 110°19'0 0.0
2017-Dec-01 21:59N 24°09' W 110°19'0 0.0
2017-Dec-01 21:29N 24°09' W 110°19'0 0.0
2017-Dec-01 20:59N 24°09' W 110°19'0 0.0
2017-Dec-01 20:29N 24°09' W 110°19'0 0.0
2017-Dec-01 19:59N 24°09' W 110°19'0 0.0
2017-Dec-01 19:29N 24°09' W 110°19'0 0.0
2017-Dec-01 18:59N 24°09' W 110°19'0 0.0
2017-Dec-01 18:29N 24°09' W 110°19'0 0.0
2017-Dec-01 17:59N 24°09' W 110°19'0 0.0
2017-Dec-01 17:29N 24°09' W 110°19'0 0.0
2017-Dec-01 16:59N 24°09' W 110°19'0 0.0
2017-Dec-01 16:29N 24°09' W 110°19'0 0.0
2017-Dec-01 15:59N 24°09' W 110°19'0 0.0
2017-Dec-01 15:29N 24°09' W 110°19'0 0.0
2017-Dec-01 14:56N 24°09' W 110°19'0 0.0
2017-Dec-01 14:30N 24°09' W 110°19'0 0.0
2017-Dec-01 13:59N 24°09' W 110°19'0 0.0
2017-Dec-01 13:29N 24°09' W 110°19'0 0.0
2017-Dec-01 12:59N 24°09' W 110°19'0 0.0
2017-Dec-01 12:29N 24°09' W 110°19'0 0.0
2017-Dec-01 11:59N 24°09' W 110°19'0 0.0
2017-Dec-01 11:29N 24°09' W 110°19'0 0.0
2017-Dec-01 10:59N 24°09' W 110°19'0 0.0
2017-Dec-01 10:29N 24°09' W 110°19'0 0.0
2017-Dec-01 09:59N 24°09' W 110°19'0 0.0
2017-Dec-01 09:29N 24°09' W 110°19'0 0.0
2017-Dec-01 08:59N 24°09' W 110°19'0 0.0
2017-Dec-01 08:29N 24°09' W 110°19'0 0.0
2017-Dec-01 07:59N 24°09' W 110°19'0 0.0
2017-Dec-01 07:29N 24°09' W 110°19'0 0.0
2017-Dec-01 06:59N 24°09' W 110°19'0 0.0
2017-Dec-01 06:29N 24°09' W 110°19'0 0.0
2017-Dec-01 05:59N 24°09' W 110°19'0 0.0
2017-Dec-01 05:29N 24°09' W 110°19'0 0.0
2017-Dec-01 04:56N 24°09' W 110°19'0 0.0
2017-Dec-01 04:29N 24°09' W 110°19'0 0.0
2017-Dec-01 03:59N 24°09' W 110°19'0 0.0
2017-Dec-01 03:29N 24°09' W 110°19'0 0.0
2017-Dec-01 02:59N 24°09' W 110°19'0 0.0
2017-Dec-01 02:29N 24°09' W 110°19'0 0.0
2017-Dec-01 01:59N 24°09' W 110°19'0 0.0
2017-Dec-01 01:29N 24°09' W 110°19'0 0.0
2017-Dec-01 00:59N 24°09' W 110°19'0 0.0
2017-Dec-01 00:29N 24°09' W 110°19'0 0.0
2017-Dec-01 00:00N 24°09' W 110°19'0 0.0
2017-Nov-30 23:29N 24°09' W 110°19'0 0.0
2017-Nov-30 22:59N 24°09' W 110°19'0 0.0
2017-Nov-30 22:29N 24°09' W 110°19'0 0.0
2017-Nov-30 21:59N 24°09' W 110°19'0 0.0
2017-Nov-30 21:29N 24°09' W 110°19'0 0.0
2017-Nov-30 20:59N 24°09' W 110°19'0 0.0
2017-Nov-30 20:30N 24°09' W 110°19'0 0.0
2017-Nov-30 19:59N 24°09' W 110°19'0 0.0
2017-Nov-30 19:29N 24°09' W 110°19'  

Dump ship's entire track history